createdAt,value
2018-12-30T00:02:25.613Z,101066.00
2018-12-30T00:04:55.099Z,101060.00
2018-12-30T00:07:24.679Z,101064.00
2018-12-30T00:09:53.809Z,101067.00
2018-12-30T00:12:32.389Z,101055.00
2018-12-30T00:15:02.022Z,101055.00
2018-12-30T00:17:31.259Z,101053.00
2018-12-30T00:20:00.758Z,101045.00
2018-12-30T00:22:42.714Z,101044.00
2018-12-30T00:25:13.529Z,101050.00
2018-12-30T00:27:42.686Z,101049.00
2018-12-30T00:30:11.833Z,101045.00
2018-12-30T00:32:41.059Z,101039.00
2018-12-30T00:35:10.175Z,101043.00
2018-12-30T00:37:39.360Z,101051.00
2018-12-30T00:40:08.956Z,101050.00
2018-12-30T00:42:38.626Z,101043.00
2018-12-30T00:45:07.702Z,101043.00
2018-12-30T00:47:36.880Z,101056.00
2018-12-30T00:50:05.971Z,101052.00
2018-12-30T00:52:35.083Z,101052.00
2018-12-30T00:55:04.557Z,101048.00
2018-12-30T00:57:33.789Z,101054.00
2018-12-30T01:00:02.868Z,101054.00
2018-12-30T01:02:32.033Z,101047.00
2018-12-30T01:05:01.146Z,101039.00
2018-12-30T01:07:30.319Z,101052.00
2018-12-30T01:09:59.676Z,101054.00
2018-12-30T01:12:28.790Z,101051.00
2018-12-30T01:14:57.927Z,101045.00
2018-12-30T01:17:27.052Z,101052.00
2018-12-30T01:19:56.153Z,101053.00
2018-12-30T01:22:25.360Z,101055.00
2018-12-30T01:24:54.439Z,101060.00
2018-12-30T01:27:23.569Z,101062.00
2018-12-30T01:29:52.776Z,101058.00
2018-12-30T01:32:21.878Z,101056.00
2018-12-30T01:34:50.969Z,101054.00
2018-12-30T01:37:20.089Z,101059.00
2018-12-30T01:39:49.265Z,101062.00
2018-12-30T01:42:18.388Z,101059.00
2018-12-30T01:44:47.477Z,101050.00
2018-12-30T01:47:16.599Z,101059.00
2018-12-30T01:49:45.866Z,101064.00
2018-12-30T01:52:14.987Z,101061.00
2018-12-30T01:55:03.514Z,101056.00
2018-12-30T01:57:32.692Z,101069.00
2018-12-30T02:00:01.774Z,101059.00
2018-12-30T02:02:30.891Z,101060.00
2018-12-30T02:04:59.983Z,101061.00
2018-12-30T02:07:29.094Z,101068.00
2018-12-30T02:09:58.185Z,101064.00
2018-12-30T02:12:27.394Z,101060.00
2018-12-30T02:14:56.516Z,101068.00
2018-12-30T02:17:25.707Z,101065.00
2018-12-30T02:19:54.804Z,101076.00
2018-12-30T02:22:23.921Z,101063.00
2018-12-30T02:24:53.108Z,101059.00
2018-12-30T02:27:22.334Z,101057.00
2018-12-30T02:29:51.463Z,101067.00
2018-12-30T02:32:20.647Z,101067.00
2018-12-30T02:34:49.730Z,101068.00
2018-12-30T02:37:19.123Z,101064.00
2018-12-30T02:39:48.289Z,101061.00
2018-12-30T02:42:17.383Z,101072.00
2018-12-30T02:44:46.550Z,101064.00
2018-12-30T02:47:15.716Z,101058.00
2018-12-30T02:49:44.881Z,101067.00
2018-12-30T02:52:14.080Z,101071.00
2018-12-30T02:54:43.725Z,101062.00
2018-12-30T02:57:12.839Z,101054.00
2018-12-30T02:59:42.397Z,101058.00
2018-12-30T03:02:11.593Z,101056.00
2018-12-30T03:04:40.643Z,101060.00
2018-12-30T03:07:09.751Z,101058.00
2018-12-30T03:09:38.845Z,101062.00
2018-12-30T03:12:08.239Z,101055.00
2018-12-30T03:14:37.320Z,101060.00
2018-12-30T03:17:06.514Z,101064.00
2018-12-30T03:19:35.604Z,101068.00
2018-12-30T03:22:04.715Z,101062.00
2018-12-30T03:24:33.803Z,101064.00
2018-12-30T03:27:02.936Z,101064.00
2018-12-30T03:29:32.070Z,101057.00
2018-12-30T03:32:01.326Z,101064.00
2018-12-30T03:34:30.521Z,101064.00
2018-12-30T03:36:59.668Z,101063.00
2018-12-30T03:39:28.766Z,101065.00
2018-12-30T03:41:57.859Z,101069.00
2018-12-30T03:44:26.987Z,101075.00
2018-12-30T03:46:56.073Z,101078.00
2018-12-30T03:49:25.254Z,101090.00
2018-12-30T03:51:54.315Z,101085.00
2018-12-30T03:54:23.435Z,101091.00
2018-12-30T03:56:52.528Z,101085.00
2018-12-30T03:59:21.709Z,101087.00
2018-12-30T04:01:50.784Z,101095.00
2018-12-30T04:04:20.059Z,101104.00
2018-12-30T04:06:49.126Z,101099.00
2018-12-30T04:09:18.435Z,101094.00
2018-12-30T04:11:47.524Z,101108.00
2018-12-30T04:14:16.650Z,101116.00
2018-12-30T04:16:45.795Z,101111.00
2018-12-30T04:19:14.897Z,101112.00
2018-12-30T04:21:44.074Z,101124.00
2018-12-30T04:24:13.254Z,101128.00
2018-12-30T04:26:42.421Z,101136.00
2018-12-30T04:29:11.609Z,101124.00
2018-12-30T04:31:40.692Z,101132.00
2018-12-30T04:34:09.997Z,101134.00
2018-12-30T04:36:39.068Z,101130.00
2018-12-30T04:39:08.175Z,101143.00
2018-12-30T04:41:37.363Z,101155.00
2018-12-30T04:44:06.524Z,101145.00
2018-12-30T04:46:35.610Z,101147.00
2018-12-30T04:49:04.723Z,101157.00
2018-12-30T04:51:33.811Z,101161.00
2018-12-30T04:54:02.920Z,101160.00
2018-12-30T04:56:32.011Z,101176.00
2018-12-30T04:59:01.203Z,101171.00
2018-12-30T05:01:30.283Z,101170.00
2018-12-30T05:03:59.396Z,101183.00
2018-12-30T05:06:28.478Z,101189.00
2018-12-30T05:08:57.592Z,101196.00
2018-12-30T05:11:26.682Z,101201.00
2018-12-30T05:13:55.881Z,101202.00
2018-12-30T05:16:24.956Z,101213.00
2018-12-30T05:18:54.221Z,101218.00
2018-12-30T05:21:23.317Z,101223.00
2018-12-30T05:23:52.539Z,101238.00
2018-12-30T05:26:21.605Z,101248.00
2018-12-30T05:28:50.824Z,101246.00
2018-12-30T05:31:19.894Z,101242.00
2018-12-30T05:33:49.004Z,101277.00
2018-12-30T05:36:18.097Z,101280.00
2018-12-30T05:38:47.203Z,101281.00
2018-12-30T05:41:16.398Z,101290.00
2018-12-30T05:43:45.489Z,101290.00
2018-12-30T05:46:14.650Z,101296.00
2018-12-30T05:48:43.810Z,101309.00
2018-12-30T05:51:12.914Z,101316.00
2018-12-30T05:53:42.043Z,101328.00
2018-12-30T05:56:11.157Z,101336.00
2018-12-30T05:58:40.252Z,101343.00
2018-12-30T06:01:09.360Z,101342.00
2018-12-30T06:03:38.450Z,101358.00
2018-12-30T06:06:07.563Z,101369.00
2018-12-30T06:08:36.658Z,101374.00
2018-12-30T06:11:05.760Z,101379.00
2018-12-30T06:13:34.854Z,101395.00
2018-12-30T06:16:03.968Z,101406.00
2018-12-30T06:18:33.159Z,101401.00
2018-12-30T06:21:02.253Z,101400.00
2018-12-30T06:23:31.340Z,101413.00
2018-12-30T06:26:00.453Z,101418.00
2018-12-30T06:28:29.545Z,101431.00
2018-12-30T06:30:58.658Z,101431.00
2018-12-30T06:33:27.752Z,101428.00
2018-12-30T06:35:56.954Z,101439.00
2018-12-30T06:38:26.043Z,101445.00
2018-12-30T06:40:55.239Z,101458.00
2018-12-30T06:43:24.382Z,101461.00
2018-12-30T06:45:53.578Z,101482.00
2018-12-30T06:48:22.666Z,101476.00
2018-12-30T06:50:51.842Z,101487.00
2018-12-30T06:53:20.917Z,101495.00
2018-12-30T06:55:50.045Z,101502.00
2018-12-30T06:58:19.227Z,101505.00
2018-12-30T07:00:48.402Z,101501.00
2018-12-30T07:03:17.476Z,101526.00
2018-12-30T07:05:46.596Z,101511.00
2018-12-30T07:08:15.852Z,101529.00
2018-12-30T07:10:44.991Z,101521.00
2018-12-30T07:13:14.086Z,101535.00
2018-12-30T07:15:43.202Z,101546.00
2018-12-30T07:18:12.294Z,101548.00
2018-12-30T07:20:41.405Z,101561.00
2018-12-30T07:23:10.550Z,101575.00
2018-12-30T07:25:39.667Z,101581.00
2018-12-30T07:28:08.756Z,101595.00
2018-12-30T07:30:37.869Z,101603.00
2018-12-30T07:33:06.962Z,101597.00
2018-12-30T07:35:36.082Z,101604.00
2018-12-30T07:38:05.257Z,101592.00
2018-12-30T07:40:34.432Z,101607.00
2018-12-30T07:43:03.511Z,101617.00
2018-12-30T07:45:32.625Z,101620.00
2018-12-30T07:48:01.722Z,101625.00
2018-12-30T07:50:30.841Z,101623.00
2018-12-30T07:52:59.930Z,101637.00
2018-12-30T07:55:29.041Z,101632.00
2018-12-30T07:57:58.231Z,101641.00
2018-12-30T08:00:27.412Z,101642.00
2018-12-30T08:02:56.499Z,101651.00
2018-12-30T08:05:26.498Z,101663.00
2018-12-30T08:07:55.778Z,101669.00
2018-12-30T08:10:24.882Z,101665.00
2018-12-30T08:12:54.026Z,101670.00
2018-12-30T08:15:23.101Z,101672.00
2018-12-30T08:17:52.220Z,101682.00
2018-12-30T08:20:21.311Z,101680.00
2018-12-30T08:22:50.421Z,101687.00
2018-12-30T08:25:19.573Z,101691.00
2018-12-30T08:27:48.748Z,101684.00
2018-12-30T08:30:17.835Z,101683.00
2018-12-30T08:32:46.951Z,101684.00
2018-12-30T08:35:16.036Z,101704.00
2018-12-30T08:37:45.163Z,101705.00
2018-12-30T08:40:14.404Z,101710.00
2018-12-30T08:42:43.538Z,101717.00
2018-12-30T08:45:12.624Z,101707.00
2018-12-30T08:47:41.739Z,101695.00
2018-12-30T08:50:10.829Z,101718.00
2018-12-30T08:52:39.932Z,101705.00
2018-12-30T08:55:09.022Z,101704.00
2018-12-30T08:57:38.136Z,101708.00
2018-12-30T09:00:07.603Z,101714.00
2018-12-30T09:02:36.720Z,101722.00
2018-12-30T09:05:05.865Z,101731.00
2018-12-30T09:07:34.961Z,101744.00
2018-12-30T09:10:06.763Z,101746.00
2018-12-30T09:12:35.859Z,101742.00
2018-12-30T09:15:05.585Z,101746.00
2018-12-30T09:17:34.696Z,101748.00
2018-12-30T09:20:04.132Z,101749.00
2018-12-30T09:22:33.364Z,101750.00
2018-12-30T09:25:02.433Z,101757.00
2018-12-30T09:27:31.635Z,101761.00
2018-12-30T09:30:00.779Z,101760.00
2018-12-30T09:32:29.881Z,101776.00
2018-12-30T09:34:59.038Z,101768.00
2018-12-30T09:37:28.258Z,101761.00
2018-12-30T09:39:57.390Z,101762.00
2018-12-30T09:42:26.590Z,101786.00
2018-12-30T09:44:55.665Z,101781.00
2018-12-30T09:47:24.783Z,101788.00
2018-12-30T09:49:53.938Z,101788.00
2018-12-30T09:52:23.029Z,101789.00
2018-12-30T09:54:52.119Z,101792.00
2018-12-30T09:57:21.327Z,101791.00
2018-12-30T09:59:50.395Z,101790.00
2018-12-30T10:02:19.595Z,101790.00
2018-12-30T10:04:48.658Z,101783.00
2018-12-30T10:07:17.778Z,101786.00
2018-12-30T10:09:46.936Z,101798.00
2018-12-30T10:12:16.108Z,101785.00
2018-12-30T10:14:45.186Z,101787.00
2018-12-30T10:17:14.305Z,101794.00
2018-12-30T10:19:43.461Z,101792.00
2018-12-30T10:22:12.553Z,101791.00
2018-12-30T10:24:41.648Z,101798.00
2018-12-30T10:27:10.765Z,101800.00
2018-12-30T10:29:39.865Z,101805.00
2018-12-30T10:32:08.987Z,101805.00
2018-12-30T10:34:38.084Z,101803.00
2018-12-30T10:37:07.550Z,101816.00
2018-12-30T10:39:36.697Z,101808.00
2018-12-30T10:42:05.908Z,101814.00
2018-12-30T10:44:35.078Z,101792.00
2018-12-30T10:47:04.177Z,101810.00
2018-12-30T10:49:33.337Z,101807.00
2018-12-30T10:52:02.533Z,101810.00
2018-12-30T10:54:31.785Z,101812.00
2018-12-30T10:57:00.869Z,101809.00
2018-12-30T10:59:29.983Z,101807.00
2018-12-30T11:01:59.137Z,101802.00
2018-12-30T11:04:28.356Z,101810.00
2018-12-30T11:06:57.554Z,101799.00
2018-12-30T11:09:26.825Z,101810.00
2018-12-30T11:11:55.976Z,101801.00
2018-12-30T11:14:25.516Z,101803.00
2018-12-30T11:16:56.913Z,101802.00
2018-12-30T11:19:26.089Z,101804.00
2018-12-30T11:21:55.303Z,101795.00
2018-12-30T11:24:24.511Z,101803.00
2018-12-30T11:27:13.037Z,101799.00
2018-12-30T11:29:44.759Z,101801.00
2018-12-30T11:32:14.551Z,101802.00
2018-12-30T11:34:43.738Z,101807.00
2018-12-30T11:37:12.934Z,101800.00
2018-12-30T11:39:42.116Z,101802.00
2018-12-30T11:42:11.204Z,101795.00
2018-12-30T11:44:40.398Z,101797.00
2018-12-30T11:47:30.606Z,101784.00
2018-12-30T11:49:59.719Z,101787.00
2018-12-30T11:52:28.923Z,101800.00
2018-12-30T11:54:58.252Z,101793.00
2018-12-30T11:57:27.397Z,101791.00
2018-12-30T11:59:56.528Z,101794.00
2018-12-30T12:02:25.622Z,101795.00
2018-12-30T12:04:56.674Z,101804.00
2018-12-30T12:07:25.754Z,101811.00
2018-12-30T12:09:54.885Z,101798.00
2018-12-30T12:12:23.978Z,101802.00
2018-12-30T12:14:53.105Z,101794.00
2018-12-30T12:17:22.190Z,101797.00
2018-12-30T12:19:51.311Z,101802.00
2018-12-30T12:22:20.495Z,101798.00
2018-12-30T12:24:49.665Z,101794.00
2018-12-30T12:27:18.831Z,101802.00
2018-12-30T12:29:47.987Z,101809.00
2018-12-30T12:32:17.071Z,101804.00
2018-12-30T12:34:46.257Z,101814.00
2018-12-30T12:37:15.335Z,101827.00
2018-12-30T12:39:44.524Z,101814.00
2018-12-30T12:42:13.598Z,101823.00
2018-12-30T12:44:42.826Z,101824.00
2018-12-30T12:47:11.898Z,101824.00
2018-12-30T12:49:41.086Z,101822.00
2018-12-30T12:52:10.285Z,101838.00
2018-12-30T12:54:39.470Z,101841.00
2018-12-30T12:57:08.957Z,101824.00
2018-12-30T12:59:38.066Z,101843.00
2018-12-30T13:02:07.246Z,101836.00
2018-12-30T13:04:36.344Z,101845.00
2018-12-30T13:07:05.505Z,101838.00
2018-12-30T13:09:34.616Z,101836.00
2018-12-30T13:12:03.769Z,101844.00
2018-12-30T13:14:52.384Z,101851.00
2018-12-30T13:17:21.465Z,101843.00
2018-12-30T13:19:50.606Z,101853.00
2018-12-30T13:22:19.805Z,101838.00
2018-12-30T13:24:48.979Z,101840.00
2018-12-30T13:27:18.075Z,101849.00
2018-12-30T13:29:47.385Z,101854.00
2018-12-30T13:32:16.472Z,101857.00
2018-12-30T13:34:45.590Z,101858.00
2018-12-30T13:37:14.679Z,101852.00
2018-12-30T13:39:43.800Z,101858.00
2018-12-30T13:42:13.028Z,101852.00
2018-12-30T13:44:42.145Z,101869.00
2018-12-30T13:47:11.226Z,101869.00
2018-12-30T13:49:40.472Z,101869.00
2018-12-30T13:52:09.712Z,101873.00
2018-12-30T13:54:38.906Z,101880.00
2018-12-30T13:57:08.746Z,101882.00
2018-12-30T13:59:37.860Z,101876.00
2018-12-30T14:02:07.042Z,101892.00
2018-12-30T14:04:36.213Z,101879.00
2018-12-30T14:07:05.344Z,101900.00
2018-12-30T14:09:34.521Z,101888.00
2018-12-30T14:12:03.613Z,101893.00
2018-12-30T14:14:32.739Z,101908.00
2018-12-30T14:17:01.910Z,101908.00
2018-12-30T14:19:31.403Z,101904.00
2018-12-30T14:22:00.499Z,101906.00
2018-12-30T14:24:29.628Z,101913.00
2018-12-30T14:26:59.993Z,101911.00
2018-12-30T14:29:29.299Z,101911.00
2018-12-30T14:31:58.394Z,101923.00
2018-12-30T14:34:27.599Z,101918.00
2018-12-30T14:36:56.769Z,101902.00
2018-12-30T14:39:25.959Z,101904.00
2018-12-30T14:41:55.110Z,101904.00
2018-12-30T14:44:24.203Z,101906.00
2018-12-30T14:46:53.579Z,101912.00
2018-12-30T14:49:22.743Z,101915.00
2018-12-30T14:51:51.835Z,101922.00
2018-12-30T14:54:21.054Z,101925.00
2018-12-30T14:56:50.129Z,101935.00
2018-12-30T14:59:19.245Z,101934.00
2018-12-30T15:01:48.341Z,101932.00
2018-12-30T15:04:17.593Z,101943.00
2018-12-30T15:06:46.666Z,101939.00
2018-12-30T15:09:15.781Z,101947.00
2018-12-30T15:11:44.980Z,101956.00
2018-12-30T15:14:14.107Z,101956.00
2018-12-30T15:16:43.232Z,101961.00
2018-12-30T15:19:12.334Z,101964.00
2018-12-30T15:21:41.450Z,101970.00
2018-12-30T15:24:10.603Z,101968.00
2018-12-30T15:26:39.680Z,101970.00
2018-12-30T15:29:08.801Z,101975.00
2018-12-30T15:31:37.915Z,101967.00
2018-12-30T15:34:07.035Z,101969.00
2018-12-30T15:36:36.370Z,101983.00
2018-12-30T15:39:08.300Z,101987.00
2018-12-30T15:41:37.383Z,101991.00
2018-12-30T15:44:06.614Z,101997.00
2018-12-30T15:46:35.677Z,101995.00
2018-12-30T15:49:04.796Z,102001.00
2018-12-30T15:51:33.907Z,102001.00
2018-12-30T15:54:03.033Z,102015.00
2018-12-30T15:56:32.169Z,102014.00
2018-12-30T15:59:01.283Z,102018.00
2018-12-30T16:01:30.416Z,102020.00
2018-12-30T16:03:59.541Z,102029.00
2018-12-30T16:06:28.665Z,102030.00
2018-12-30T16:08:57.779Z,102039.00
2018-12-30T16:11:26.942Z,102043.00
2018-12-30T16:13:56.117Z,102031.00
2018-12-30T16:16:25.300Z,102034.00
2018-12-30T16:18:54.475Z,102032.00
2018-12-30T16:21:26.394Z,102030.00
2018-12-30T16:23:55.507Z,102026.00
2018-12-30T16:26:24.697Z,102034.00
2018-12-30T16:28:53.823Z,102025.00
2018-12-30T16:31:28.029Z,102025.00
2018-12-30T16:33:53.928Z,102025.00
2018-12-30T16:36:23.145Z,102021.00
2018-12-30T16:38:52.333Z,102023.00
2018-12-30T16:41:21.532Z,102035.00
2018-12-30T16:43:50.621Z,102047.00
2018-12-30T16:46:19.734Z,102042.00
2018-12-30T16:48:48.923Z,102046.00
2018-12-30T16:51:18.061Z,102057.00
2018-12-30T16:53:47.222Z,102066.00
2018-12-30T16:56:16.869Z,102069.00
2018-12-30T16:58:45.980Z,102078.00
2018-12-30T17:01:19.075Z,102063.00
2018-12-30T17:04:07.607Z,102068.00
2018-12-30T17:06:36.731Z,102065.00
2018-12-30T17:09:06.908Z,102073.00
2018-12-30T17:11:36.045Z,102078.00
2018-12-30T17:14:05.156Z,102082.00
2018-12-30T17:16:34.264Z,102083.00
2018-12-30T17:19:03.477Z,102078.00
2018-12-30T17:21:32.592Z,102082.00
2018-12-30T17:24:01.772Z,102089.00
2018-12-30T17:26:30.930Z,102088.00
2018-12-30T17:29:00.158Z,102091.00
2018-12-30T17:31:29.278Z,102104.00
2018-12-30T17:33:58.465Z,102104.00
2018-12-30T17:36:27.604Z,102109.00
2018-12-30T17:38:56.806Z,102105.00
2018-12-30T17:41:26.032Z,102114.00
2018-12-30T17:43:55.277Z,102112.00
2018-12-30T17:46:24.393Z,102104.00
2018-12-30T17:48:53.965Z,102112.00
2018-12-30T17:51:23.108Z,102114.00
2018-12-30T17:53:52.214Z,102126.00
2018-12-30T17:56:21.360Z,102134.00
2018-12-30T17:58:50.565Z,102145.00
2018-12-30T18:01:19.663Z,102147.00
2018-12-30T18:03:48.835Z,102152.00
2018-12-30T18:06:18.014Z,102140.00
2018-12-30T18:08:47.184Z,102141.00
2018-12-30T18:11:16.391Z,102143.00
2018-12-30T18:13:45.494Z,102145.00
2018-12-30T18:16:15.014Z,102143.00
2018-12-30T18:18:44.196Z,102152.00
2018-12-30T18:21:13.391Z,102148.00
2018-12-30T18:23:42.562Z,102166.00
2018-12-30T18:26:13.674Z,102159.00
2018-12-30T18:28:42.788Z,102171.00
2018-12-30T18:31:14.097Z,102165.00
2018-12-30T18:33:43.212Z,102172.00
2018-12-30T18:36:13.316Z,102169.00
2018-12-30T18:38:42.491Z,102179.00
2018-12-30T18:41:14.540Z,102180.00
2018-12-30T18:43:43.718Z,102180.00
2018-12-30T18:46:15.157Z,102186.00
2018-12-30T18:48:44.336Z,102194.00
2018-12-30T18:51:14.197Z,102192.00
2018-12-30T18:53:43.380Z,102201.00
2018-12-30T18:56:14.377Z,102199.00
2018-12-30T18:58:43.482Z,102196.00
2018-12-30T19:01:16.017Z,102199.00
2018-12-30T19:03:45.127Z,102199.00
2018-12-30T19:06:14.441Z,102193.00
2018-12-30T19:08:43.549Z,102203.00
2018-12-30T19:11:17.044Z,102201.00
2018-12-30T19:13:46.168Z,102195.00
2018-12-30T19:16:15.382Z,102194.00
2018-12-30T19:18:44.587Z,102200.00
2018-12-30T19:21:14.828Z,102199.00
2018-12-30T19:23:43.937Z,102210.00
2018-12-30T19:26:14.472Z,102214.00
2018-12-30T19:28:43.760Z,102214.00
2018-12-30T19:31:13.861Z,102224.00
2018-12-30T19:33:42.978Z,102220.00
2018-12-30T19:36:12.146Z,102222.00
2018-12-30T19:38:41.363Z,102215.00
2018-12-30T19:41:12.506Z,102217.00
2018-12-30T19:43:42.020Z,102205.00
2018-12-30T19:46:14.466Z,102210.00
2018-12-30T19:48:43.577Z,102217.00
2018-12-30T19:51:15.433Z,102220.00
2018-12-30T19:53:44.593Z,102216.00
2018-12-30T19:56:13.882Z,102223.00
2018-12-30T19:58:43.078Z,102213.00
2018-12-30T20:01:12.230Z,102212.00
2018-12-30T20:03:41.447Z,102219.00
2018-12-30T20:06:10.595Z,102214.00
2018-12-30T20:08:39.685Z,102208.00
2018-12-30T20:11:10.708Z,102206.00
2018-12-30T20:13:39.924Z,102204.00
2018-12-30T20:16:09.258Z,102206.00
2018-12-30T20:18:38.402Z,102208.00
2018-12-30T20:21:07.526Z,102212.00
2018-12-30T20:23:36.697Z,102218.00
2018-12-30T20:26:05.907Z,102215.00
2018-12-30T20:28:35.139Z,102216.00
2018-12-30T20:31:04.333Z,102214.00
2018-12-30T20:33:33.662Z,102228.00
2018-12-30T20:36:02.790Z,102227.00
2018-12-30T20:38:32.139Z,102234.00
2018-12-30T20:41:01.340Z,102237.00
2018-12-30T20:43:30.461Z,102227.00
2018-12-30T20:45:59.612Z,102234.00
2018-12-30T20:48:28.747Z,102234.00
2018-12-30T20:50:57.916Z,102229.00
2018-12-30T20:53:27.092Z,102226.00
2018-12-30T20:55:56.278Z,102219.00
2018-12-30T20:58:25.392Z,102230.00
2018-12-30T21:00:54.554Z,102229.00
2018-12-30T21:03:23.645Z,102229.00
2018-12-30T21:05:52.872Z,102235.00
2018-12-30T21:08:21.969Z,102239.00
2018-12-30T21:10:51.209Z,102250.00
2018-12-30T21:13:20.292Z,102245.00
2018-12-30T21:15:49.417Z,102250.00
2018-12-30T21:18:18.511Z,102260.00
2018-12-30T21:20:47.773Z,102260.00
2018-12-30T21:23:16.862Z,102255.00
2018-12-30T21:25:46.062Z,102244.00
2018-12-30T21:28:15.252Z,102256.00
2018-12-30T21:30:44.351Z,102254.00
2018-12-30T21:33:13.472Z,102257.00
2018-12-30T21:35:42.683Z,102251.00
2018-12-30T21:38:11.747Z,102265.00
2018-12-30T21:40:40.865Z,102270.00
2018-12-30T21:43:09.958Z,102264.00
2018-12-30T21:45:39.102Z,102272.00
2018-12-30T21:48:08.224Z,102289.00
2018-12-30T21:50:37.342Z,102288.00
2018-12-30T21:53:06.445Z,102291.00
2018-12-30T21:55:35.601Z,102290.00
2018-12-30T21:58:04.777Z,102284.00
2018-12-30T22:00:33.948Z,102278.00
2018-12-30T22:03:05.571Z,102281.00
2018-12-30T22:05:33.918Z,102282.00
2018-12-30T22:08:03.016Z,102275.00
2018-12-30T22:10:32.128Z,102276.00
2018-12-30T22:13:01.225Z,102272.00
2018-12-30T22:15:30.399Z,102282.00
2018-12-30T22:17:59.495Z,102281.00
2018-12-30T22:20:28.776Z,102279.00
2018-12-30T22:22:57.857Z,102269.00
2018-12-30T22:25:27.042Z,102281.00
2018-12-30T22:27:56.138Z,102281.00
2018-12-30T22:30:25.235Z,102284.00
2018-12-30T22:32:54.381Z,102279.00
2018-12-30T22:35:23.469Z,102285.00
2018-12-30T22:37:52.596Z,102294.00
2018-12-30T22:40:21.692Z,102286.00
2018-12-30T22:42:50.822Z,102287.00
2018-12-30T22:45:19.916Z,102297.00
2018-12-30T22:47:49.447Z,102292.00
2018-12-30T22:50:18.530Z,102301.00
2018-12-30T22:52:48.940Z,102300.00
2018-12-30T22:55:18.968Z,102297.00
2018-12-30T22:57:48.086Z,102296.00
2018-12-30T23:00:27.861Z,102294.00
2018-12-30T23:02:56.985Z,102284.00
2018-12-30T23:05:26.178Z,102280.00
2018-12-30T23:07:55.240Z,102281.00
2018-12-30T23:10:24.329Z,102282.00
2018-12-30T23:12:53.448Z,102289.00
2018-12-30T23:15:22.537Z,102287.00
2018-12-30T23:17:51.655Z,102286.00
2018-12-30T23:20:20.752Z,102293.00
2018-12-30T23:22:49.865Z,102300.00
2018-12-30T23:25:18.959Z,102292.00
2018-12-30T23:27:48.073Z,102304.00
2018-12-30T23:30:17.166Z,102307.00
2018-12-30T23:32:46.286Z,102306.00
2018-12-30T23:35:15.378Z,102314.00
2018-12-30T23:37:44.499Z,102309.00
2018-12-30T23:40:13.657Z,102304.00
2018-12-30T23:42:42.775Z,102295.00
2018-12-30T23:45:11.870Z,102302.00
2018-12-30T23:47:40.984Z,102299.00
2018-12-30T23:50:10.081Z,102313.00
2018-12-30T23:52:39.198Z,102309.00
2018-12-30T23:55:08.291Z,102302.00
2018-12-30T23:57:37.408Z,102315.00
